createdAt,value
2023-05-14T00:00:18.233Z,12.13
2023-05-14T00:01:18.251Z,12.15
2023-05-14T00:02:18.325Z,12.11
2023-05-14T00:03:18.494Z,12.12
2023-05-14T00:04:18.217Z,12.11
2023-05-14T00:05:18.190Z,12.07
2023-05-14T00:06:18.177Z,12.05
2023-05-14T00:07:18.172Z,12.00
2023-05-14T00:08:18.172Z,12.01
2023-05-14T00:09:18.159Z,12.00
2023-05-14T00:10:18.128Z,12.00
2023-05-14T00:11:18.140Z,12.01
2023-05-14T00:12:18.116Z,11.98
2023-05-14T00:13:18.152Z,11.98
2023-05-14T00:14:18.129Z,11.98
2023-05-14T00:15:18.094Z,11.96
2023-05-14T00:16:18.109Z,11.96
2023-05-14T00:17:18.089Z,11.96
2023-05-14T00:18:18.044Z,11.94
2023-05-14T00:19:18.104Z,11.96
2023-05-14T00:20:18.036Z,11.94
2023-05-14T00:21:18.012Z,11.93
2023-05-14T00:22:18.014Z,11.93
2023-05-14T00:23:18.010Z,11.93
2023-05-14T00:24:18.002Z,11.93
2023-05-14T00:25:17.992Z,11.93
2023-05-14T00:26:17.986Z,11.94
2023-05-14T00:27:17.956Z,11.94
2023-05-14T00:28:17.979Z,11.94
2023-05-14T00:29:17.951Z,11.90
2023-05-14T00:30:17.925Z,11.88
2023-05-14T00:31:17.935Z,11.90
2023-05-14T00:32:17.892Z,11.88
2023-05-14T00:33:17.948Z,11.88
2023-05-14T00:34:17.879Z,11.88
2023-05-14T00:35:17.869Z,11.88
2023-05-14T00:36:17.857Z,11.90
2023-05-14T00:37:17.853Z,11.88
2023-05-14T00:38:17.833Z,11.85
2023-05-14T00:39:17.813Z,11.87
2023-05-14T00:40:17.844Z,11.85
2023-05-14T00:41:17.867Z,11.85
2023-05-14T00:42:17.806Z,11.84
2023-05-14T00:43:17.839Z,11.84
2023-05-14T00:44:17.770Z,11.82
2023-05-14T00:45:17.762Z,11.81
2023-05-14T00:46:17.826Z,11.82
2023-05-14T00:47:17.748Z,11.81
2023-05-14T00:48:17.758Z,11.78
2023-05-14T00:49:17.756Z,11.79
2023-05-14T00:50:17.694Z,11.75
2023-05-14T00:51:17.727Z,11.75
2023-05-14T00:52:17.708Z,11.74
2023-05-14T00:53:17.725Z,11.69
2023-05-14T00:54:17.673Z,11.72
2023-05-14T00:55:17.696Z,11.69
2023-05-14T00:56:17.659Z,11.70
2023-05-14T00:57:17.679Z,11.69
2023-05-14T00:58:17.630Z,11.66
2023-05-14T00:59:17.639Z,11.69
2023-05-14T01:00:17.629Z,11.70
2023-05-14T01:01:17.672Z,11.69
2023-05-14T01:02:17.603Z,11.69
2023-05-14T01:03:17.659Z,11.70
2023-05-14T01:04:17.554Z,11.70
2023-05-14T01:05:17.583Z,11.72
2023-05-14T01:06:17.548Z,11.69
2023-05-14T01:07:17.540Z,11.67
2023-05-14T01:08:17.518Z,11.70
2023-05-14T01:09:17.514Z,11.69
2023-05-14T01:10:17.538Z,11.69
2023-05-14T01:11:17.745Z,11.69
2023-05-14T01:12:17.516Z,11.64
2023-05-14T01:13:17.485Z,11.63
2023-05-14T01:14:17.476Z,11.66
2023-05-14T01:15:17.447Z,11.64
2023-05-14T01:16:17.472Z,11.64
2023-05-14T01:17:17.429Z,11.62
2023-05-14T01:18:17.401Z,11.62
2023-05-14T01:19:17.466Z,11.62
2023-05-14T01:20:17.385Z,11.63
2023-05-14T01:21:17.401Z,11.59
2023-05-14T01:22:17.398Z,11.59
2023-05-14T01:23:17.383Z,11.57
2023-05-14T01:24:17.380Z,11.56
2023-05-14T01:25:17.403Z,11.54
2023-05-14T01:26:17.341Z,11.51
2023-05-14T01:27:17.333Z,11.53
2023-05-14T01:28:17.301Z,11.53
2023-05-14T01:29:17.326Z,11.53
2023-05-14T01:30:17.281Z,11.51
2023-05-14T01:31:17.329Z,11.53
2023-05-14T01:32:17.315Z,11.49
2023-05-14T01:33:17.278Z,11.48
2023-05-14T01:34:17.262Z,11.48
2023-05-14T01:35:17.279Z,11.46
2023-05-14T01:36:17.219Z,11.45
2023-05-14T01:37:17.205Z,11.45
2023-05-14T01:38:17.195Z,11.45
2023-05-14T01:39:17.213Z,11.45
2023-05-14T01:40:17.205Z,11.45
2023-05-14T01:41:17.199Z,11.41
2023-05-14T01:42:17.150Z,11.41
2023-05-14T01:43:17.172Z,11.38
2023-05-14T01:44:17.145Z,11.36
2023-05-14T01:45:17.151Z,11.36
2023-05-14T01:46:17.145Z,11.36
2023-05-14T01:47:17.139Z,11.36
2023-05-14T01:48:17.105Z,11.35
2023-05-14T01:49:17.129Z,11.28
2023-05-14T01:50:17.103Z,11.30
2023-05-14T01:51:17.092Z,11.33
2023-05-14T01:52:17.097Z,11.28
2023-05-14T01:53:17.039Z,11.28
2023-05-14T01:54:17.031Z,11.27
2023-05-14T01:55:17.037Z,11.27
2023-05-14T01:56:17.012Z,11.28
2023-05-14T01:57:17.032Z,11.26
2023-05-14T01:58:16.998Z,11.24
2023-05-14T01:59:16.997Z,11.24
2023-05-14T02:00:16.952Z,11.23
2023-05-14T02:01:17.073Z,11.21
2023-05-14T02:02:16.968Z,11.23
2023-05-14T02:03:16.936Z,11.21
2023-05-14T02:04:16.986Z,11.19
2023-05-14T02:05:16.932Z,11.19
2023-05-14T02:06:16.904Z,11.19
2023-05-14T02:07:16.895Z,11.13
2023-05-14T02:08:16.876Z,11.12
2023-05-14T02:09:16.873Z,11.11
2023-05-14T02:10:16.863Z,11.06
2023-05-14T02:11:16.845Z,11.03
2023-05-14T02:12:16.878Z,11.03
2023-05-14T02:13:16.828Z,11.01
2023-05-14T02:14:16.847Z,10.99
2023-05-14T02:15:16.832Z,10.98
2023-05-14T02:16:16.839Z,10.99
2023-05-14T02:17:16.787Z,11.01
2023-05-14T02:18:16.783Z,10.98
2023-05-14T02:19:16.881Z,10.98
2023-05-14T02:20:16.757Z,10.99
2023-05-14T02:21:16.754Z,10.98
2023-05-14T02:22:16.757Z,10.95
2023-05-14T02:23:16.758Z,11.01
2023-05-14T02:24:16.762Z,10.99
2023-05-14T02:25:16.697Z,11.01
2023-05-14T02:26:16.746Z,10.99
2023-05-14T02:27:16.780Z,10.99
2023-05-14T02:28:16.700Z,11.02
2023-05-14T02:29:16.657Z,11.02
2023-05-14T02:30:16.698Z,11.02
2023-05-14T02:31:16.722Z,10.99
2023-05-14T02:32:16.773Z,11.03
2023-05-14T02:33:16.719Z,11.02
2023-05-14T02:34:16.677Z,11.02
2023-05-14T02:35:16.601Z,11.03
2023-05-14T02:36:16.618Z,11.02
2023-05-14T02:37:16.615Z,11.05
2023-05-14T02:38:16.569Z,11.03
2023-05-14T02:39:16.563Z,11.03
2023-05-14T02:40:16.583Z,11.01
2023-05-14T02:41:16.570Z,11.01
2023-05-14T02:42:16.549Z,11.01
2023-05-14T02:43:16.588Z,10.99
2023-05-14T02:44:16.509Z,10.99
2023-05-14T02:45:16.495Z,10.95
2023-05-14T02:46:16.978Z,10.94
2023-05-14T02:47:16.485Z,10.95
2023-05-14T02:48:16.482Z,10.93
2023-05-14T02:49:16.494Z,10.94
2023-05-14T02:50:16.468Z,10.94
2023-05-14T02:51:16.473Z,10.94
2023-05-14T02:52:16.450Z,10.91
2023-05-14T02:53:16.398Z,10.90
2023-05-14T02:54:16.459Z,10.88
2023-05-14T02:55:16.437Z,10.84
2023-05-14T02:56:16.392Z,10.87
2023-05-14T02:57:16.388Z,10.84
2023-05-14T02:58:16.403Z,10.83
2023-05-14T02:59:16.352Z,10.81
2023-05-14T03:00:16.377Z,10.76
2023-05-14T03:01:16.369Z,10.75
2023-05-14T03:02:16.441Z,10.70
2023-05-14T03:03:16.352Z,10.75
2023-05-14T03:04:16.331Z,10.72
2023-05-14T03:05:16.278Z,10.73
2023-05-14T03:06:16.282Z,10.70
2023-05-14T03:07:16.286Z,10.69
2023-05-14T03:08:16.273Z,10.68
2023-05-14T03:09:16.267Z,10.68
2023-05-14T03:10:16.249Z,10.65
2023-05-14T03:11:16.238Z,10.63
2023-05-14T03:12:16.281Z,10.62
2023-05-14T03:13:16.234Z,10.62
2023-05-14T03:14:16.190Z,10.57
2023-05-14T03:15:16.224Z,10.57
2023-05-14T03:16:16.226Z,10.55
2023-05-14T03:17:16.174Z,10.54
2023-05-14T03:18:16.189Z,10.51
2023-05-14T03:19:16.198Z,10.49
2023-05-14T03:20:16.155Z,10.47
2023-05-14T03:21:16.137Z,10.46
2023-05-14T03:22:16.123Z,10.44
2023-05-14T03:23:16.130Z,10.44
2023-05-14T03:24:16.170Z,10.43
2023-05-14T03:25:16.074Z,10.44
2023-05-14T03:26:16.088Z,10.43
2023-05-14T03:27:16.103Z,10.42
2023-05-14T03:28:16.079Z,10.43
2023-05-14T03:29:16.021Z,10.42
2023-05-14T03:30:16.067Z,10.39
2023-05-14T03:31:16.107Z,10.43
2023-05-14T03:32:15.997Z,10.39
2023-05-14T03:33:16.009Z,10.38
2023-05-14T03:34:16.009Z,10.36
2023-05-14T03:35:15.986Z,10.36
2023-05-14T03:36:15.993Z,10.32
2023-05-14T03:37:15.948Z,10.35
2023-05-14T03:38:15.975Z,10.32
2023-05-14T03:39:15.977Z,10.31
2023-05-14T03:40:15.974Z,10.31
2023-05-14T03:41:15.905Z,10.28
2023-05-14T03:42:15.893Z,10.28
2023-05-14T03:43:15.874Z,10.26
2023-05-14T03:44:15.910Z,10.25
2023-05-14T03:45:15.886Z,10.24
2023-05-14T03:46:15.884Z,10.24
2023-05-14T03:47:15.847Z,10.18
2023-05-14T03:48:16.009Z,10.17
2023-05-14T03:49:15.857Z,10.18
2023-05-14T03:50:15.825Z,10.16
2023-05-14T03:51:15.841Z,10.14
2023-05-14T03:52:15.809Z,10.13
2023-05-14T03:53:15.806Z,10.11
2023-05-14T03:54:15.794Z,10.11
2023-05-14T03:55:15.821Z,10.10
2023-05-14T03:56:15.781Z,10.13
2023-05-14T03:57:15.768Z,10.11
2023-05-14T03:58:15.766Z,10.10
2023-05-14T03:59:15.733Z,10.11
2023-05-14T04:00:15.751Z,10.13
2023-05-14T04:01:15.728Z,10.11
2023-05-14T04:02:15.736Z,10.14
2023-05-14T04:03:15.816Z,10.10
2023-05-14T04:04:15.741Z,10.10
2023-05-14T04:05:15.903Z,10.11
2023-05-14T04:06:15.643Z,10.10
2023-05-14T04:07:15.652Z,10.07
2023-05-14T04:08:15.669Z,10.10
2023-05-14T04:09:15.663Z,10.07
2023-05-14T04:10:15.610Z,10.07
2023-05-14T04:11:15.610Z,10.04
2023-05-14T04:12:15.591Z,10.04
2023-05-14T04:13:15.616Z,10.04
2023-05-14T04:14:15.602Z,10.06
2023-05-14T04:15:15.554Z,10.06
2023-05-14T04:16:15.595Z,10.04
2023-05-14T04:17:15.527Z,10.07
2023-05-14T04:18:15.599Z,10.04
2023-05-14T04:19:15.629Z,10.07
2023-05-14T04:20:15.539Z,10.09
2023-05-14T04:21:15.507Z,10.09
2023-05-14T04:22:15.499Z,10.09
2023-05-14T04:23:15.454Z,10.13
2023-05-14T04:24:15.504Z,10.11
2023-05-14T04:25:15.465Z,10.11
2023-05-14T04:26:15.459Z,10.07
2023-05-14T04:27:15.460Z,10.09
2023-05-14T04:28:15.450Z,10.11
2023-05-14T04:29:15.421Z,10.09
2023-05-14T04:30:15.426Z,10.11
2023-05-14T04:31:15.429Z,10.10
2023-05-14T04:32:15.388Z,10.10
2023-05-14T04:33:15.361Z,10.07
2023-05-14T04:34:15.363Z,10.10
2023-05-14T04:35:15.355Z,10.07
2023-05-14T04:36:15.356Z,10.09
2023-05-14T04:37:15.358Z,10.11
2023-05-14T04:38:15.339Z,10.11
2023-05-14T04:39:15.319Z,10.13
2023-05-14T04:40:15.293Z,10.16
2023-05-14T04:41:15.281Z,10.17
2023-05-14T04:42:15.327Z,10.17
2023-05-14T04:43:15.252Z,10.20
2023-05-14T04:44:15.270Z,10.20
2023-05-14T04:45:15.223Z,10.22
2023-05-14T04:46:15.235Z,10.22
2023-05-14T04:47:15.240Z,10.22
2023-05-14T04:48:15.220Z,10.24
2023-05-14T04:49:15.176Z,10.25
2023-05-14T04:50:15.210Z,10.24
2023-05-14T04:51:15.213Z,10.25
2023-05-14T04:52:15.166Z,10.28
2023-05-14T04:53:15.144Z,10.29
2023-05-14T04:54:15.204Z,10.28
2023-05-14T04:55:15.159Z,10.29
2023-05-14T04:56:15.119Z,10.28
2023-05-14T04:57:15.157Z,10.32
2023-05-14T04:58:15.186Z,10.32
2023-05-14T04:59:15.077Z,10.36
2023-05-14T05:00:15.865Z,10.36
2023-05-14T05:01:15.872Z,10.38
2023-05-14T05:02:15.048Z,10.39
2023-05-14T05:03:16.054Z,10.38
2023-05-14T05:04:15.177Z,10.39
2023-05-14T05:05:15.024Z,10.44
2023-05-14T05:06:15.070Z,10.43
2023-05-14T05:07:15.034Z,10.42
2023-05-14T05:08:15.078Z,10.44
2023-05-14T05:09:15.023Z,10.42
2023-05-14T05:10:15.009Z,10.42
2023-05-14T05:11:14.998Z,10.42
2023-05-14T05:12:14.983Z,10.43
2023-05-14T05:13:14.936Z,10.44
2023-05-14T05:14:14.963Z,10.42
2023-05-14T05:15:14.938Z,10.38
2023-05-14T05:16:14.979Z,10.38
2023-05-14T05:17:14.940Z,10.35
2023-05-14T05:18:15.468Z,10.35
2023-05-14T05:19:14.931Z,10.36
2023-05-14T05:20:14.926Z,10.39
2023-05-14T05:21:14.861Z,10.43
2023-05-14T05:22:14.872Z,10.44
2023-05-14T05:23:14.841Z,10.49
2023-05-14T05:24:14.820Z,10.52
2023-05-14T05:25:14.847Z,10.54
2023-05-14T05:26:14.857Z,10.60
2023-05-14T05:27:14.833Z,10.63
2023-05-14T05:28:14.968Z,10.69
2023-05-14T05:29:14.782Z,10.70
2023-05-14T05:30:15.492Z,10.73
2023-05-14T05:31:15.011Z,10.81
2023-05-14T05:32:14.782Z,10.78
2023-05-14T05:33:14.881Z,10.83
2023-05-14T05:34:14.737Z,10.81
2023-05-14T05:35:14.711Z,10.86
2023-05-14T05:36:14.693Z,10.88
2023-05-14T05:37:14.739Z,10.90
2023-05-14T05:38:14.707Z,10.94
2023-05-14T05:39:14.684Z,10.99
2023-05-14T05:40:14.656Z,11.01
2023-05-14T05:41:14.739Z,11.06
2023-05-14T05:42:14.646Z,11.08
2023-05-14T05:43:14.643Z,11.11
2023-05-14T05:44:14.638Z,11.13
2023-05-14T05:45:14.611Z,11.19
2023-05-14T05:46:14.665Z,11.23
2023-05-14T05:47:14.582Z,11.26
2023-05-14T05:48:14.587Z,11.28
2023-05-14T05:49:14.614Z,11.30
2023-05-14T05:50:14.579Z,11.35
2023-05-14T05:51:14.554Z,11.38
2023-05-14T05:52:14.579Z,11.42
2023-05-14T05:53:14.605Z,11.45
2023-05-14T05:54:14.518Z,11.46
2023-05-14T05:55:14.518Z,11.57
2023-05-14T05:56:14.570Z,11.67
2023-05-14T05:57:14.549Z,11.63
2023-05-14T05:58:14.466Z,11.75
2023-05-14T05:59:14.476Z,11.79
2023-05-14T06:00:14.460Z,11.85
2023-05-14T06:01:14.464Z,11.90
2023-05-14T06:02:14.566Z,11.98
2023-05-14T06:03:14.498Z,12.03
2023-05-14T06:04:14.432Z,12.03
2023-05-14T06:05:14.490Z,12.11
2023-05-14T06:06:14.405Z,12.18
2023-05-14T06:07:14.390Z,12.18
2023-05-14T06:08:14.386Z,12.26
2023-05-14T06:09:14.361Z,12.36
2023-05-14T06:10:14.402Z,12.41
2023-05-14T06:11:14.332Z,12.49
2023-05-14T06:12:14.349Z,12.52
2023-05-14T06:13:14.326Z,12.54
2023-05-14T06:14:14.324Z,12.63
2023-05-14T06:15:14.314Z,12.74
2023-05-14T06:16:14.484Z,12.89
2023-05-14T06:17:14.337Z,13.07
2023-05-14T06:18:14.303Z,13.17
2023-05-14T06:19:14.392Z,13.29
2023-05-14T06:20:14.275Z,13.35
2023-05-14T06:21:14.220Z,13.46
2023-05-14T06:22:14.240Z,13.51
2023-05-14T06:23:14.240Z,13.68
2023-05-14T06:24:14.201Z,13.81
2023-05-14T06:25:14.181Z,13.79
2023-05-14T06:26:14.198Z,13.94
2023-05-14T06:27:14.175Z,14.02
2023-05-14T06:28:14.188Z,13.86
2023-05-14T06:29:14.132Z,13.98
2023-05-14T06:30:14.158Z,14.08
2023-05-14T06:31:14.149Z,14.17
2023-05-14T06:32:14.292Z,13.99
2023-05-14T06:33:14.123Z,13.99
2023-05-14T06:34:14.125Z,14.16
2023-05-14T06:35:14.072Z,14.26
2023-05-14T06:36:14.070Z,14.31
2023-05-14T06:37:14.061Z,14.44
2023-05-14T06:38:14.057Z,14.48
2023-05-14T06:39:14.057Z,14.56
2023-05-14T06:40:14.039Z,14.63
2023-05-14T06:41:14.008Z,14.64
2023-05-14T06:42:15.001Z,14.64
2023-05-14T06:43:14.049Z,14.72
2023-05-14T06:44:13.978Z,14.69
2023-05-14T06:45:13.995Z,14.69
2023-05-14T06:46:13.976Z,14.67
2023-05-14T06:47:13.970Z,14.61
2023-05-14T06:48:14.033Z,14.66
2023-05-14T06:49:13.986Z,14.82
2023-05-14T06:50:13.955Z,14.72
2023-05-14T06:51:13.965Z,14.85
2023-05-14T06:52:13.912Z,14.91
2023-05-14T06:53:13.891Z,15.01
2023-05-14T06:54:13.893Z,14.94
2023-05-14T06:55:13.878Z,14.93
2023-05-14T06:56:13.882Z,15.01
2023-05-14T06:57:13.840Z,14.95
2023-05-14T06:58:13.834Z,14.91
2023-05-14T06:59:13.815Z,14.94
2023-05-14T07:00:13.831Z,15.07
2023-05-14T07:01:13.839Z,15.19
2023-05-14T07:02:13.831Z,15.30
2023-05-14T07:03:13.806Z,15.40
2023-05-14T07:04:13.875Z,15.34
2023-05-14T07:05:13.774Z,15.20
2023-05-14T07:06:13.807Z,15.31
2023-05-14T07:07:13.758Z,15.38
2023-05-14T07:08:13.762Z,15.46
2023-05-14T07:09:13.715Z,15.46
2023-05-14T07:10:13.712Z,15.56
2023-05-14T07:11:13.706Z,15.44
2023-05-14T07:12:13.693Z,15.34
2023-05-14T07:13:13.681Z,15.33
2023-05-14T07:14:13.688Z,15.31
2023-05-14T07:15:13.692Z,15.46
2023-05-14T07:16:13.635Z,15.58
2023-05-14T07:17:13.678Z,15.59
2023-05-14T07:18:13.689Z,15.67
2023-05-14T07:19:13.647Z,15.73
2023-05-14T07:20:13.649Z,15.76
2023-05-14T07:21:13.617Z,15.91
2023-05-14T07:22:13.602Z,16.06
2023-05-14T07:23:13.576Z,15.99
2023-05-14T07:24:13.575Z,16.10
2023-05-14T07:25:13.592Z,16.22
2023-05-14T07:26:13.558Z,16.17
2023-05-14T07:27:13.556Z,16.14
2023-05-14T07:28:13.532Z,15.96
2023-05-14T07:29:13.538Z,15.91
2023-05-14T07:30:13.491Z,15.92
2023-05-14T07:31:13.570Z,16.03
2023-05-14T07:32:15.560Z,16.01
2023-05-14T07:33:13.496Z,16.08
2023-05-14T07:34:13.964Z,16.13
2023-05-14T07:35:13.493Z,16.03
2023-05-14T07:36:13.433Z,16.03
2023-05-14T07:37:13.450Z,16.22
2023-05-14T07:38:13.447Z,16.34
2023-05-14T07:39:13.412Z,16.04
2023-05-14T07:40:13.412Z,16.01
2023-05-14T07:41:13.390Z,15.85
2023-05-14T07:42:21.867Z,15.89
2023-05-14T07:43:13.395Z,16.04
2023-05-14T07:44:13.367Z,16.26
2023-05-14T07:45:13.359Z,16.33
2023-05-14T07:46:13.333Z,16.34
2023-05-14T07:47:13.411Z,16.32
2023-05-14T07:48:13.444Z,16.45
2023-05-14T07:49:13.311Z,16.60
2023-05-14T07:50:13.336Z,16.70
2023-05-14T07:51:13.324Z,16.73
2023-05-14T07:52:13.316Z,16.80
2023-05-14T07:53:13.275Z,16.80
2023-05-14T07:54:13.253Z,16.91
2023-05-14T07:55:13.322Z,17.00
2023-05-14T07:56:13.304Z,17.24
2023-05-14T07:57:13.225Z,17.32
2023-05-14T07:58:13.217Z,17.36
2023-05-14T07:59:13.199Z,17.36
2023-05-14T08:00:13.195Z,17.25
2023-05-14T08:01:13.212Z,17.21
2023-05-14T08:02:13.272Z,17.27
2023-05-14T08:03:13.262Z,17.12
2023-05-14T08:04:13.290Z,16.82
2023-05-14T08:05:13.172Z,16.80
2023-05-14T08:06:13.131Z,16.84
2023-05-14T08:07:13.136Z,16.92
2023-05-14T08:08:13.101Z,16.88
2023-05-14T08:09:13.100Z,17.02
2023-05-14T08:10:13.360Z,17.17
2023-05-14T08:11:13.138Z,17.27
2023-05-14T08:12:13.128Z,17.39
2023-05-14T08:13:13.063Z,17.45
2023-05-14T08:14:13.133Z,17.57
2023-05-14T08:15:13.071Z,17.63
2023-05-14T08:16:13.053Z,17.53
2023-05-14T08:17:13.274Z,17.51
2023-05-14T08:18:13.047Z,17.62
2023-05-14T08:19:13.062Z,17.76
2023-05-14T08:20:13.011Z,17.40
2023-05-14T08:21:12.984Z,17.43
2023-05-14T08:22:12.980Z,17.51
2023-05-14T08:23:12.978Z,17.58
2023-05-14T08:24:12.958Z,17.74
2023-05-14T08:25:12.941Z,17.86
2023-05-14T08:26:12.953Z,17.84
2023-05-14T08:27:12.945Z,17.83
2023-05-14T08:28:12.891Z,17.86
2023-05-14T08:29:14.056Z,17.73
2023-05-14T08:30:12.888Z,17.79
2023-05-14T08:31:12.899Z,17.45
2023-05-14T08:32:22.694Z,17.63
2023-05-14T08:33:12.896Z,17.84
2023-05-14T08:34:12.827Z,17.87
2023-05-14T08:35:12.827Z,17.71
2023-05-14T08:36:12.850Z,17.77
2023-05-14T08:37:12.809Z,17.66
2023-05-14T08:38:13.035Z,17.73
2023-05-14T08:39:12.796Z,17.70
2023-05-14T08:40:13.079Z,17.65
2023-05-14T08:41:12.770Z,17.77
2023-05-14T08:42:13.041Z,17.76
2023-05-14T08:43:12.737Z,17.55
2023-05-14T08:44:12.886Z,17.54
2023-05-14T08:45:12.746Z,17.71
2023-05-14T08:46:12.715Z,17.80
2023-05-14T08:47:12.740Z,17.80
2023-05-14T08:48:12.752Z,18.14
2023-05-14T08:49:13.622Z,18.36
2023-05-14T08:50:12.662Z,18.50
2023-05-14T08:51:12.679Z,18.75
2023-05-14T08:52:12.683Z,18.87
2023-05-14T08:53:12.640Z,19.10
2023-05-14T08:54:12.776Z,18.89
2023-05-14T08:55:12.637Z,18.71
2023-05-14T08:56:15.524Z,18.74
2023-05-14T08:57:12.642Z,18.31
2023-05-14T08:58:12.591Z,18.19
2023-05-14T08:59:12.580Z,18.21
2023-05-14T09:00:12.653Z,18.14
2023-05-14T09:01:12.562Z,18.23
2023-05-14T09:02:12.630Z,18.44
2023-05-14T09:03:12.625Z,18.62
2023-05-14T09:04:12.687Z,18.86
2023-05-14T09:05:12.609Z,19.01
2023-05-14T09:06:13.231Z,18.69
2023-05-14T09:07:12.511Z,18.53
2023-05-14T09:08:13.019Z,18.28
2023-05-14T09:09:12.458Z,18.13
2023-05-14T09:10:12.476Z,18.01
2023-05-14T09:11:12.453Z,17.92
2023-05-14T09:12:12.479Z,17.86
2023-05-14T09:13:12.416Z,17.65
2023-05-14T09:14:12.411Z,17.43
2023-05-14T09:15:12.430Z,17.30
2023-05-14T09:16:12.487Z,17.22
2023-05-14T09:17:12.391Z,17.09
2023-05-14T09:18:12.582Z,17.10
2023-05-14T09:19:12.477Z,17.07
2023-05-14T09:20:12.611Z,17.12
2023-05-14T09:21:12.329Z,17.02
2023-05-14T09:22:12.339Z,17.17
2023-05-14T09:23:12.340Z,17.27
2023-05-14T09:24:12.302Z,17.39
2023-05-14T09:25:12.615Z,17.53
2023-05-14T09:26:12.271Z,17.42
2023-05-14T09:27:12.270Z,17.33
2023-05-14T09:28:12.263Z,17.24
2023-05-14T09:29:12.246Z,17.18
2023-05-14T09:30:12.266Z,17.21
2023-05-14T09:31:12.301Z,17.28
2023-05-14T09:32:12.207Z,17.14
2023-05-14T09:33:12.242Z,17.09
2023-05-14T09:34:12.177Z,17.03
2023-05-14T09:35:12.238Z,17.10
2023-05-14T09:36:12.194Z,17.17
2023-05-14T09:37:12.194Z,17.18
2023-05-14T09:38:12.140Z,17.28
2023-05-14T09:39:12.171Z,17.21
2023-05-14T09:40:12.229Z,17.20
2023-05-14T09:41:12.124Z,17.25
2023-05-14T09:42:12.130Z,17.14
2023-05-14T09:43:12.115Z,17.09
2023-05-14T09:44:12.094Z,17.09
2023-05-14T09:45:12.075Z,17.06
2023-05-14T09:46:12.071Z,17.10
2023-05-14T09:47:12.070Z,17.12
2023-05-14T09:48:12.112Z,17.15
2023-05-14T09:49:12.036Z,17.18
2023-05-14T09:50:12.039Z,17.00
2023-05-14T09:51:12.037Z,17.00
2023-05-14T09:52:12.011Z,16.96
2023-05-14T09:53:12.005Z,16.99
2023-05-14T09:54:11.993Z,17.03
2023-05-14T09:55:12.038Z,17.15
2023-05-14T09:56:11.970Z,17.05
2023-05-14T09:57:11.969Z,17.03
2023-05-14T09:58:11.985Z,17.12
2023-05-14T09:59:11.924Z,17.18
2023-05-14T10:00:11.901Z,17.22
2023-05-14T10:01:11.984Z,17.24
2023-05-14T10:02:11.881Z,17.24
2023-05-14T10:03:11.907Z,17.28
2023-05-14T10:04:11.973Z,17.20
2023-05-14T10:05:11.859Z,17.15
2023-05-14T10:06:11.838Z,17.17
2023-05-14T10:07:11.914Z,17.10
2023-05-14T10:08:11.845Z,17.10
2023-05-14T10:09:11.836Z,17.06
2023-05-14T10:10:11.828Z,17.06
2023-05-14T10:11:11.786Z,17.02
2023-05-14T10:12:11.779Z,16.82
2023-05-14T10:13:11.799Z,16.80
2023-05-14T10:14:11.773Z,16.81
2023-05-14T10:15:12.516Z,16.84
2023-05-14T10:16:11.826Z,16.81
2023-05-14T10:17:11.831Z,16.80
2023-05-14T10:18:11.847Z,16.88
2023-05-14T10:19:11.804Z,16.91
2023-05-14T10:20:11.705Z,16.95
2023-05-14T10:21:11.723Z,17.03
2023-05-14T10:22:11.694Z,17.02
2023-05-14T10:23:11.707Z,17.09
2023-05-14T10:24:11.651Z,17.17
2023-05-14T10:25:11.641Z,17.17
2023-05-14T10:26:11.669Z,17.07
2023-05-14T10:27:11.649Z,17.07
2023-05-14T10:28:11.656Z,17.10
2023-05-14T10:29:11.629Z,17.21
2023-05-14T10:30:11.598Z,17.32
2023-05-14T10:31:11.680Z,17.40
2023-05-14T10:32:11.605Z,17.49
2023-05-14T10:33:11.697Z,17.54
2023-05-14T10:34:11.541Z,17.57
2023-05-14T10:35:11.533Z,17.66
2023-05-14T10:36:11.530Z,17.80
2023-05-14T10:37:11.554Z,17.89
2023-05-14T10:38:11.537Z,17.94
2023-05-14T10:39:11.547Z,17.96
2023-05-14T10:40:11.478Z,17.96
2023-05-14T10:41:11.523Z,18.04
2023-05-14T10:42:11.459Z,18.09
2023-05-14T10:43:11.485Z,18.19
2023-05-14T10:44:11.496Z,18.25
2023-05-14T10:45:11.453Z,18.21
2023-05-14T10:46:11.441Z,18.07
2023-05-14T10:47:11.408Z,18.09
2023-05-14T10:48:11.415Z,18.10
2023-05-14T10:49:11.408Z,18.10
2023-05-14T10:50:11.611Z,18.10
2023-05-14T10:51:11.418Z,18.19
2023-05-14T10:52:11.398Z,18.26
2023-05-14T10:53:11.387Z,18.19
2023-05-14T10:54:11.414Z,18.28
2023-05-14T10:55:11.381Z,18.21
2023-05-14T10:56:11.346Z,18.19
2023-05-14T10:57:11.319Z,18.26
2023-05-14T10:58:11.278Z,18.31
2023-05-14T10:59:11.290Z,18.41
2023-05-14T11:00:11.295Z,18.42
2023-05-14T11:01:11.301Z,18.39
2023-05-14T11:02:11.308Z,18.31
2023-05-14T11:03:11.270Z,18.29
2023-05-14T11:04:11.302Z,18.34
2023-05-14T11:05:11.221Z,18.26
2023-05-14T11:06:11.218Z,18.28
2023-05-14T11:07:11.209Z,18.28
2023-05-14T11:08:11.191Z,18.25
2023-05-14T11:09:11.170Z,18.02
2023-05-14T11:10:11.181Z,17.99
2023-05-14T11:11:11.144Z,17.87
2023-05-14T11:12:11.139Z,17.86
2023-05-14T11:13:11.140Z,17.76
2023-05-14T11:14:11.134Z,17.83
2023-05-14T11:15:11.211Z,17.92
2023-05-14T11:16:22.438Z,17.98
2023-05-14T11:17:11.208Z,18.09
2023-05-14T11:18:12.080Z,18.05
2023-05-14T11:19:11.241Z,18.02
2023-05-14T11:20:11.095Z,18.09
2023-05-14T11:21:11.100Z,18.16
2023-05-14T11:22:11.041Z,18.07
2023-05-14T11:23:11.168Z,18.09
2023-05-14T11:24:11.044Z,18.16
2023-05-14T11:25:11.035Z,17.96
2023-05-14T11:26:11.034Z,17.92
2023-05-14T11:27:11.066Z,17.86
2023-05-14T11:28:11.009Z,17.87
2023-05-14T11:29:10.964Z,17.89
2023-05-14T11:30:10.966Z,17.84
2023-05-14T11:31:11.010Z,17.86
2023-05-14T11:32:11.061Z,17.96
2023-05-14T11:33:10.932Z,18.02
2023-05-14T11:34:10.932Z,18.19
2023-05-14T11:35:10.912Z,18.29
2023-05-14T11:36:10.905Z,18.29
2023-05-14T11:37:10.887Z,18.44
2023-05-14T11:38:10.868Z,18.44
2023-05-14T11:39:10.844Z,18.42
2023-05-14T11:40:10.850Z,18.44
2023-05-14T11:41:10.820Z,18.50
2023-05-14T11:42:10.845Z,18.59
2023-05-14T11:43:10.808Z,18.56
2023-05-14T11:44:10.794Z,18.65
2023-05-14T11:45:10.783Z,18.65
2023-05-14T11:46:10.791Z,18.74
2023-05-14T11:47:10.790Z,18.89
2023-05-14T11:48:10.781Z,18.90
2023-05-14T11:49:10.746Z,18.99
2023-05-14T11:50:10.737Z,19.01
2023-05-14T11:51:10.719Z,18.93
2023-05-14T11:52:10.712Z,18.82
2023-05-14T11:53:10.704Z,18.89
2023-05-14T11:54:10.702Z,18.82
2023-05-14T11:55:10.692Z,18.79
2023-05-14T11:56:10.697Z,18.84
2023-05-14T11:57:10.669Z,18.97
2023-05-14T11:58:10.643Z,19.07
2023-05-14T11:59:10.642Z,19.17
2023-05-14T12:00:10.630Z,19.21
2023-05-14T12:01:10.598Z,19.12
2023-05-14T12:02:10.675Z,19.17
2023-05-14T12:03:10.728Z,19.31
2023-05-14T12:04:10.634Z,19.38
2023-05-14T12:05:10.590Z,19.43
2023-05-14T12:06:10.554Z,19.45
2023-05-14T12:07:10.567Z,19.20
2023-05-14T12:08:10.543Z,19.15
2023-05-14T12:09:10.507Z,19.12
2023-05-14T12:10:10.522Z,19.21
2023-05-14T12:11:10.487Z,19.34
2023-05-14T12:12:10.526Z,19.60
2023-05-14T12:13:10.499Z,19.89
2023-05-14T12:14:10.471Z,19.94
2023-05-14T12:15:10.486Z,19.83
2023-05-14T12:16:10.523Z,19.85
2023-05-14T12:17:10.454Z,19.67
2023-05-14T12:18:23.006Z,19.79
2023-05-14T12:19:10.469Z,19.86
2023-05-14T12:20:10.417Z,20.04
2023-05-14T12:21:10.432Z,19.95
2023-05-14T12:22:10.396Z,20.12
2023-05-14T12:23:10.382Z,20.08
2023-05-14T12:24:10.376Z,20.05
2023-05-14T12:25:10.358Z,19.72
2023-05-14T12:26:10.358Z,19.67
2023-05-14T12:27:10.350Z,19.45
2023-05-14T12:28:10.318Z,19.45
2023-05-14T12:29:10.306Z,19.62
2023-05-14T12:31:10.342Z,19.97
2023-05-14T12:32:10.293Z,20.23
2023-05-14T12:33:10.478Z,20.34
2023-05-14T12:34:10.274Z,20.26
2023-05-14T12:35:10.315Z,20.27
2023-05-14T12:36:21.383Z,20.48
2023-05-14T12:37:10.223Z,20.34
2023-05-14T12:38:10.257Z,20.08
2023-05-14T12:39:10.215Z,20.02
2023-05-14T12:40:10.236Z,19.95
2023-05-14T12:41:10.182Z,19.68
2023-05-14T12:42:10.191Z,19.58
2023-05-14T12:43:10.165Z,19.64
2023-05-14T12:44:10.152Z,19.78
2023-05-14T12:45:10.172Z,20.00
2023-05-14T12:46:10.155Z,20.02
2023-05-14T12:47:10.235Z,19.97
2023-05-14T12:48:10.140Z,19.71
2023-05-14T12:49:10.085Z,19.62
2023-05-14T12:50:10.089Z,19.68
2023-05-14T12:51:10.164Z,19.50
2023-05-14T12:52:22.782Z,19.60
2023-05-14T12:53:10.070Z,19.71